| time (UTC) | temp C | wind direction | speed KPH | gust KPH | rain 1hr cm | rain 24hr cm | rain mn cm | humidity % | barometer mb |
| 20260509224020 | 32 | 51 | 6.4 | 11.3 | 0.00 | 0.00 | 0.00 | 43 | 1008.4 |
| 20260509223026 | 32 | 57 | 4.8 | 8.0 | 0.00 | 0.00 | 0.00 | 43 | 1008.5 |
| 20260509222043 | 32 | 54 | 6.4 | 11.3 | 0.00 | 0.00 | 0.00 | 44 | 1008.5 |
| 20260509221021 | 33 | 37 | 3.2 | 11.3 | 0.00 | 0.00 | 0.00 | 40 | 1008.5 |
| 20260509220019 | 33 | 224 | 3.2 | 6.4 | 0.00 | 0.00 | 0.00 | 41 | 1008.6 |
| 20260509215022 | 33 | 166 | 3.2 | 9.7 | 0.00 | 0.00 | 0.00 | 41 | 1008.6 |
| 20260509214018 | 33 | 29 | 3.2 | 6.4 | 0.00 | 0.00 | 0.00 | 43 | 1008.8 |
| 20260509213024 | 33 | 66 | 3.2 | 8.0 | 0.00 | 0.00 | 0.00 | 41 | 1008.8 |
| 20260509212043 | 33 | 248 | 1.6 | 4.8 | 0.00 | 0.00 | 0.00 | 43 | 1008.9 |
| 20260509211020 | 33 | 37 | 4.8 | 11.3 | 0.00 | 0.00 | 0.00 | 42 | 1009.0 |
| 20260509210046 | 32 | 221 | 3.2 | 6.4 | 0.00 | 0.00 | 0.00 | 42 | 1009.1 |
| 20260509205020 | 33 | 346 | 1.6 | 4.8 | 0.00 | 0.00 | 0.00 | 42 | 1009.3 |
| 20260509204025 | 32 | 15 | 1.6 | 4.8 | 0.00 | 0.00 | 0.00 | 40 | 1009.4 |
| 20260509203023 | 33 | 237 | 3.2 | 4.8 | 0.00 | 0.00 | 0.00 | 39 | 1009.6 |
| 20260509202021 | 32 | 196 | 3.2 | 4.8 | 0.00 | 0.00 | 0.00 | 39 | 1009.7 |
| 20260509201019 | 32 | 34 | 3.2 | 4.8 | 0.00 | 0.00 | 0.00 | 39 | 1009.8 |
| 20260509200022 | 32 | 139 | 3.2 | 6.4 | 0.00 | 0.00 | 0.00 | 39 | 1009.9 |
| 20260509195019 | 32 | 243 | 1.6 | 3.2 | 0.00 | 0.00 | 0.00 | 42 | 1010.0 |
| 20260509194024 | 32 | 49 | 3.2 | 6.4 | 0.00 | 0.00 | 0.00 | 44 | 1010.2 |
| 20260509193101 | 32 | 39 | 4.8 | 9.7 | 0.00 | 0.00 | 0.00 | 44 | 1010.2 |
| 20260509192027 | 32 | 214 | 3.2 | 8.0 | 0.00 | 0.00 | 0.00 | 44 | 1010.2 |
| 20260509191024 | 32 | 54 | 3.2 | 8.0 | 0.00 | 0.00 | 0.00 | 44 | 1010.3 |
| 20260509190021 | 32 | 31 | 3.2 | 6.4 | 0.00 | 0.00 | 0.00 | 45 | 1010.4 |
| 20260509185024 | 31 | 17 | 3.2 | 9.7 | 0.00 | 0.00 | 0.00 | 47 | 1010.4 |
| 20260509184023 | 32 | 77 | 3.2 | 6.4 | 0.00 | 0.00 | 0.00 | 46 | 1010.5 |
| 20260509183020 | 31 | 192 | 3.2 | 4.8 | 0.00 | 0.00 | 0.00 | 48 | 1010.7 |
| 20260509182018 | 31 | 225 | 3.2 | 9.7 | 0.00 | 0.00 | 0.00 | 47 | 1010.6 |
| 20260509181023 | 31 | 328 | 3.2 | 8.0 | 0.00 | 0.00 | 0.00 | 47 | 1010.8 |
| 20260509180020 | 31 | 331 | 1.6 | 3.2 | 0.00 | 0.00 | 0.00 | 48 | 1010.8 |
| 20260509175023 | 30 | 211 | 3.2 | 11.3 | 0.00 | 0.00 | 0.00 | 50 | 1010.8 |
| 20260509174052 | 31 | 219 | 3.2 | 4.8 | 0.00 | 0.00 | 0.00 | 48 | 1011.0 |
| 20260509173019 | 31 | 253 | 1.6 | 3.2 | 0.00 | 0.00 | 0.00 | 49 | 1011.0 |
| 20260509172025 | 30 | 224 | 4.8 | 11.3 | 0.00 | 0.00 | 0.00 | 49 | 1011.0 |
| 20260509171022 | 30 | 196 | 4.8 | 11.3 | 0.00 | 0.00 | 0.00 | 50 | 1011.2 |
| 20260509170019 | 30 | 258 | 3.2 | 9.7 | 0.00 | 0.00 | 0.00 | 49 | 1011.2 |
| 20260509165022 | 30 | 229 | 4.8 | 9.7 | 0.00 | 0.00 | 0.00 | 51 | 1011.3 |
| 20260509164020 | 29 | 202 | 3.2 | 9.7 | 0.00 | 0.00 | 0.00 | 52 | 1011.4 |
| 20260509163028 | 28 | 211 | 3.2 | 4.8 | 0.00 | 0.00 | 0.00 | 52 | 1011.4 |
| 20260509162026 | 28 | 218 | 4.8 | 11.3 | 0.00 | 0.00 | 0.00 | 53 | 1011.4 |
| 20260509161020 | 28 | 204 | 4.8 | 9.7 | 0.00 | 0.00 | 0.00 | 53 | 1011.3 |
| 20260509160043 | 28 | 256 | 3.2 | 6.4 | 0.00 | 0.00 | 0.00 | 53 | 1011.1 |
| 20260509155021 | 27 | 314 | 4.8 | 8.0 | 0.00 | 0.00 | 0.00 | 53 | 1011.0 |
| 20260509154041 | 27 | 204 | 4.8 | 6.4 | 0.00 | 0.00 | 0.00 | 55 | 1011.0 |
| 20260509153049 | 27 | 29 | 3.2 | 6.4 | 0.00 | 0.00 | 0.00 | 57 | 1011.0 |
| 20260509152025 | 26 | 171 | 3.2 | 4.8 | 0.00 | 0.00 | 0.00 | 61 | 1011.0 |
| 20260509151040 | 26 | 284 | 3.2 | 4.8 | 0.00 | 0.00 | 0.00 | 62 | 1010.9 |
| 20260509150021 | 25 | 218 | 3.2 | 9.7 | 0.00 | 0.00 | 0.00 | 66 | 1011.0 |
| 20260509145020 | 24 | 268 | 3.2 | 6.4 | 0.00 | 0.00 | 0.00 | 69 | 1011.0 |
| 20260509144028 | 24 | 235 | 1.6 | 4.8 | 0.00 | 0.00 | 0.00 | 70 | 1011.2 |
| 20260509143026 | 23 | 193 | 3.2 | 4.8 | 0.00 | 0.00 | 0.00 | 72 | 1011.2 |
| 20260509142021 | 23 | 271 | 3.2 | 6.4 | 0.00 | 0.00 | 0.00 | 73 | 1011.2 |
| 20260509141018 | 22 | 217 | 4.8 | 9.7 | 0.00 | 0.00 | 0.00 | 75 | 1011.3 |
| 20260509140020 | 23 | 198 | 4.8 | 9.7 | 0.00 | 0.00 | 0.00 | 75 | 1011.3 |
| 20260509135038 | 23 | 161 | 1.6 | 8.0 | 0.00 | 0.00 | 0.00 | 75 | 1011.1 |
| 20260509134027 | 22 | 203 | 4.8 | 9.7 | 0.00 | 0.00 | 0.00 | 78 | 1011.1 |
| 20260509133025 | 22 | 190 | 3.2 | 6.4 | 0.00 | 0.00 | 0.00 | 79 | 1010.9 |
| 20260509132023 | 21 | 181 | 1.6 | 4.8 | 0.00 | 0.00 | 0.00 | 80 | 1010.7 |
| 20260509131041 | 21 | 205 | 3.2 | 8.0 | 0.00 | 0.00 | 0.00 | 81 | 1010.9 |
| 20260509130019 | 21 | 205 | 1.6 | 3.2 | 0.00 | 0.00 | 0.00 | 83 | 1010.9 |
| 20260509125108 | 20 | 165 | 1.6 | 3.2 | 0.00 | 0.00 | 0.00 | 83 | 1010.8 |
| 20260509124026 | 20 | 62 | 0.0 | 3.2 | 0.00 | 0.00 | 0.00 | 85 | 1010.9 |
| 20260509123044 | 19 | 173 | 1.6 | 6.4 | 0.00 | 0.00 | 0.00 | 84 | 1010.8 |
| 20260509122022 | 19 | 209 | 1.6 | 3.2 | 0.00 | 0.00 | 0.00 | 84 | 1010.6 |
| 20260509121053 | 19 | 203 | 0.0 | 1.6 | 0.00 | 0.00 | 0.00 | 85 | 1010.7 |
| 20260509120030 | 19 | 212 | 1.6 | 3.2 | 0.00 | 0.00 | 0.00 | 86 | 1010.6 |
| 20260509115027 | 19 | 179 | 1.6 | 4.8 | 0.00 | 0.00 | 0.00 | 86 | 1010.5 |
| 20260509114025 | 19 | 22 | 0.0 | 1.6 | 0.00 | 0.15 | 0.00 | 86 | 1010.0 |
| 20260509113023 | 19 | 0.0 | 1.6 | 0.00 | 0.15 | 0.00 | 85 | 1009.8 | |
| 20260509112021 | 20 | 329 | 1.6 | 4.8 | 0.00 | 0.15 | 0.00 | 85 | 1009.6 |
| 20260509111018 | 19 | 184 | 1.6 | 4.8 | 0.00 | 0.15 | 0.00 | 84 | 1009.6 |
| 20260509110029 | 19 | 212 | 1.6 | 6.4 | 0.00 | 0.15 | 0.00 | 83 | 1009.8 |
| 20260509105026 | 19 | 16 | 0.0 | 3.2 | 0.00 | 0.15 | 0.00 | 82 | 1009.5 |
| 20260509104023 | 19 | 14 | 0.0 | 1.6 | 0.00 | 0.15 | 0.00 | 81 | 1009.6 |
| 20260509103021 | 20 | 0.0 | 0.0 | 0.00 | 0.15 | 0.00 | 79 | 1009.5 | |
| 20260509102020 | 20 | 170 | 0.0 | 1.6 | 0.00 | 0.15 | 0.00 | 78 | 1009.5 |
| 20260509101051 | 20 | 200 | 0.0 | 3.2 | 0.00 | 0.15 | 0.00 | 78 | 1009.3 |
| 20260509100048 | 20 | 196 | 1.6 | 3.2 | 0.00 | 0.15 | 0.00 | 77 | 1009.4 |
| 20260509095025 | 21 | 218 | 1.6 | 3.2 | 0.00 | 0.15 | 0.00 | 76 | 1009.3 |
| 20260509094022 | 21 | 65 | 1.6 | 3.2 | 0.00 | 0.15 | 0.00 | 75 | 1009.0 |
| 20260509093040 | 21 | 34 | 1.6 | 3.2 | 0.00 | 0.15 | 0.00 | 75 | 1008.5 |
| 20260509092029 | 21 | 344 | 0.0 | 3.2 | 0.00 | 0.15 | 0.00 | 76 | 1008.5 |
| 20260509091027 | 21 | 30 | 1.6 | 4.8 | 0.00 | 0.15 | 0.00 | 79 | 1008.4 |
| 20260509090027 | 21 | 81 | 4.8 | 9.7 | 0.00 | 0.15 | 0.00 | 82 | 1008.0 |
| 20260509085044 | 21 | 194 | 1.6 | 4.8 | 0.00 | 0.15 | 0.00 | 83 | 1007.1 |
| 20260509084021 | 21 | 171 | 4.8 | 9.7 | 0.00 | 0.15 | 0.00 | 82 | 1007.2 |
| 20260509083019 | 21 | 115 | 4.8 | 9.7 | 0.00 | 0.15 | 0.00 | 81 | 1007.0 |
| 20260509082028 | 21 | 81 | 6.4 | 9.7 | 0.00 | 0.15 | 0.00 | 81 | 1006.7 |
| 20260509081029 | 20 | 64 | 4.8 | 11.3 | 0.00 | 0.15 | 0.00 | 83 | 1007.1 |
| 20260509080026 | 20 | 46 | 1.6 | 4.8 | 0.00 | 0.15 | 0.00 | 86 | 1007.8 |
| 20260509075023 | 20 | 168 | 1.6 | 4.8 | 0.00 | 0.15 | 0.00 | 86 | 1008.8 |
| 20260509074020 | 20 | 174 | 1.6 | 4.8 | 0.00 | 0.15 | 0.00 | 87 | 1009.5 |
| 20260509073028 | 20 | 204 | 3.2 | 8.0 | 0.00 | 0.15 | 0.00 | 87 | 1009.9 |
| 20260509072027 | 20 | 189 | 4.8 | 9.7 | 0.00 | 0.15 | 0.00 | 88 | 1010.2 |
| 20260509071047 | 20 | 238 | 3.2 | 6.4 | 0.00 | 0.15 | 0.00 | 88 | 1010.2 |
| 20260509070024 | 20 | 191 | 6.4 | 11.3 | 0.00 | 0.15 | 0.00 | 88 | 1011.0 |
| 20260509065021 | 20 | 187 | 6.4 | 11.3 | 0.00 | 0.15 | 0.00 | 88 | 1011.4 |
| 20260509064018 | 20 | 204 | 6.4 | 8.0 | 0.00 | 0.15 | 0.00 | 88 | 1011.6 |
| 20260509063027 | 20 | 196 | 3.2 | 6.4 | 0.00 | 0.15 | 0.00 | 87 | 1011.5 |
| 20260509062025 | 20 | 176 | 3.2 | 4.8 | 0.00 | 0.15 | 0.00 | 87 | 1011.4 |
| 20260509061023 | 20 | 177 | 0.0 | 3.2 | 0.00 | 0.15 | 0.00 | 87 | 1011.5 |
| 20260509060024 | 20 | 0.0 | 0.0 | 0.00 | 0.15 | 0.00 | 86 | 1011.3 | |
| 20260509055021 | 21 | 0.0 | 0.0 | 0.00 | 0.15 | 0.00 | 85 | 1011.3 | |
| 20260509054028 | 21 | 175 | 0.0 | 1.6 | 0.00 | 0.15 | 0.00 | 85 | 1011.3 |
| 20260509053026 | 21 | 0.0 | 0.0 | 0.00 | 0.15 | 0.00 | 85 | 1011.5 | |
| 20260509052024 | 21 | 0.0 | 1.6 | 0.00 | 0.15 | 0.00 | 84 | 1011.5 | |
| 20260509051025 | 21 | 96 | 0.0 | 3.2 | 0.00 | 0.15 | 0.00 | 84 | 1011.5 |
| 20260509050022 | 21 | 292 | 0.0 | 1.6 | 0.00 | 0.15 | 0.00 | 83 | 1011.0 |
| 20260509045020 | 21 | 48 | 0.0 | 3.2 | 0.00 | 0.15 | 0.15 | 83 | 1010.7 |
| 20260509044028 | 21 | 66 | 1.6 | 4.8 | 0.00 | 0.15 | 0.15 | 82 | 1010.4 |
| 20260509043025 | 21 | 82 | 1.6 | 3.2 | 0.00 | 0.15 | 0.15 | 82 | 1010.3 |
| 20260509042047 | 21 | 116 | 3.2 | 4.8 | 0.00 | 0.15 | 0.15 | 81 | 1010.2 |
| 20260509041021 | 22 | 102 | 3.2 | 4.8 | 0.00 | 0.15 | 0.15 | 81 | 1010.3 |
| 20260509040022 | 22 | 60 | 1.6 | 4.8 | 0.00 | 0.15 | 0.15 | 80 | 1010.4 |
| 20260509035019 | 22 | 69 | 3.2 | 4.8 | 0.00 | 0.15 | 0.15 | 80 | 1010.3 |
| 20260509034025 | 22 | 39 | 1.6 | 4.8 | 0.00 | 0.15 | 0.15 | 80 | 1010.5 |
| 20260509033024 | 22 | 21 | 1.6 | 4.8 | 0.00 | 0.15 | 0.15 | 80 | 1010.4 |
| 20260509032022 | 22 | 67 | 3.2 | 6.4 | 0.00 | 0.15 | 0.15 | 80 | 1010.0 |
| 20260509031020 | 22 | 58 | 4.8 | 9.7 | 0.00 | 0.15 | 0.15 | 79 | 1009.3 |
| 20260509030020 | 22 | 73 | 6.4 | 11.3 | 0.00 | 0.15 | 0.15 | 79 | 1008.9 |
| 20260509025027 | 22 | 55 | 4.8 | 9.7 | 0.00 | 0.15 | 0.15 | 79 | 1009.2 |
| 20260509024045 | 22 | 78 | 4.8 | 9.7 | 0.00 | 0.15 | 0.15 | 78 | 1008.9 |
| 20260509023023 | 22 | 92 | 3.2 | 6.4 | 0.00 | 0.15 | 0.15 | 78 | 1008.6 |
| 20260509022020 | 22 | 83 | 3.2 | 6.4 | 0.00 | 0.15 | 0.15 | 77 | 1008.4 |
| 20260509021019 | 22 | 102 | 8.0 | 16.1 | 0.00 | 0.15 | 0.15 | 77 | 1008.1 |
| 20260509020019 | 22 | 94 | 6.4 | 14.5 | 0.00 | 0.15 | 0.15 | 76 | 1007.9 |
| 20260509015025 | 22 | 96 | 4.8 | 9.7 | 0.00 | 0.15 | 0.15 | 76 | 1008.5 |
| 20260509014023 | 22 | 126 | 3.2 | 6.4 | 0.00 | 0.15 | 0.15 | 75 | 1008.7 |
| 20260509013022 | 22 | 69 | 3.2 | 4.8 | 0.00 | 0.15 | 0.15 | 75 | 1008.7 |
| 20260509012020 | 22 | 45 | 3.2 | 8.0 | 0.00 | 0.15 | 0.15 | 75 | 1008.7 |
| 20260509011021 | 22 | 95 | 3.2 | 6.4 | 0.00 | 0.15 | 0.15 | 74 | 1008.6 |
| 20260509010026 | 22 | 173 | 3.2 | 4.8 | 0.00 | 0.15 | 0.15 | 74 | 1008.4 |
| 20260509005052 | 23 | 124 | 3.2 | 8.0 | 0.00 | 0.15 | 0.15 | 73 | 1008.3 |
| 20260509004022 | 23 | 125 | 3.2 | 8.0 | 0.00 | 0.15 | 0.15 | 73 | 1008.1 |
| 20260509003023 | 23 | 115 | 4.8 | 11.3 | 0.00 | 0.15 | 0.15 | 72 | 1008.2 |
| 20260509002023 | 23 | 147 | 3.2 | 9.7 | 0.00 | 0.15 | 0.15 | 72 | 1008.1 |
| 20260509001020 | 23 | 147 | 4.8 | 9.7 | 0.00 | 0.15 | 0.15 | 72 | 1008.1 |
| 20260509000035 | 23 | 125 | 4.8 | 9.7 | 0.00 | 0.15 | 0.15 | 72 | 1008.3 |
| 20260508235023 | 23 | 249 | 3.2 | 6.4 | 0.00 | 0.15 | 0.15 | 71 | 1008.5 |
| 20260508234021 | 23 | 61 | 6.4 | 9.7 | 0.00 | 0.15 | 0.15 | 70 | 1008.5 |
| 20260508233025 | 23 | 129 | 3.2 | 8.0 | 0.00 | 0.15 | 0.15 | 70 | 1008.5 |
| 20260508232043 | 23 | 96 | 6.4 | 11.3 | 0.00 | 0.15 | 0.15 | 69 | 1008.6 |
| 20260508231019 | 23 | 99 | 3.2 | 8.0 | 0.00 | 0.15 | 0.15 | 69 | 1008.7 |
| 20260508230044 | 23 | 105 | 6.4 | 11.3 | 0.00 | 0.15 | 0.15 | 68 | 1008.6 |
| 20260508225022 | 24 | 90 | 6.4 | 12.9 | 0.00 | 0.15 | 0.15 | 67 | 1008.6 |